Aeroporto :
LOGIN :

Iscrizione | Disclaimer

   EN    FR    IT 

 










Sommario :    VFR   VFR Marginale   IFR   IFR Intensivo   IFR Molto Intensivo
Visibilità : 
Base nubi : 
>= 8 km
>= 3000ft
5 / 8 km
1000 / 3000 ft
1500m / 5 km
500 / 1000 ft
800 / 1500m
200 / 500 ft
< 800m
< 200 ft
Simboli :   Temporali  Nebbia  Neve Forte  Precipitazioni Forti  Vento > 20 kt
SIGMETs :   Varie  Temporali  Ghiacco  Turbolenza  Onda orograficha  Ceneri Vulcaniche







- Altitudine del aeroporto : 306 ft
- Codice IATA : EMA
- Carte del aeroporto


EGNX - Nottingham East Midlands

ULTIMO METAR :
  • 200120Z 27004KT CAVOK 09/08 Q1012

METARs OBSOLETI :
  • 200020Z 29005KT CAVOK 10/08 Q1012
  • 192350Z 30005KT CAVOK 11/08 Q1012
  • 192320Z 29005KT 9999 SCT047 11/08 Q1012
  • 192250Z 29006KT 9999 SCT045 11/08 Q1012

TAF TAF EGNX
Valido dal 20 a 00 ore il 21 a 00 ore UTC


192254Z 2000/2024 30005KT 9999 SCT030
PROB30
TEMPO 2003/2008 5000 BR BKN006
PROB30
TEMPO 2011/2018 4000 +SHRA
ATIS : +44 1332 852 852 (ext 3201)
Nessun NOTAM noto per questo aeroporto.



MetMap, La meteo Aeronautica in un colpo d'occhio ! - Copyright ORBIFLY Dicembre 2007 - Disclaimer

ORBIFLY MET'MAP TEAM :

Programmazione e sviluppo : Alexandra Zaïnal
Concezione e sviluppo : Baudouin d'Aumeries
Co-Programmazione e sviluppo : Marc-Olivier Méhu
Supporto tecnico e logistico : Manuel Goepfert
Aiuto per la traduzione : Arnaldo La Scala

Contatto : metmap@orbifly.com




FONTI E CREDITI :

   NOAA